sensor_id;sensor_type;location;lat;lon;timestamp;temperature;humidity
11505;DHT22;5809;53.262;10.408;2023-07-16T00:01:01;20.30;99.90
11505;DHT22;5809;53.262;10.408;2023-07-16T00:03:28;20.30;1.00
11505;DHT22;5809;53.262;10.408;2023-07-16T00:05:55;20.20;1.00
11505;DHT22;5809;53.262;10.408;2023-07-16T00:08:22;20.10;99.90
11505;DHT22;5809;53.262;10.408;2023-07-16T00:10:50;20.10;51.70
11505;DHT22;5809;53.262;10.408;2023-07-16T00:13:17;20.10;1.00
11505;DHT22;5809;53.262;10.408;2023-07-16T00:15:44;20.10;1.00
11505;DHT22;5809;53.262;10.408;2023-07-16T00:18:10;20.10;1.00
11505;DHT22;5809;53.262;10.408;2023-07-16T00:20:37;20.10;1.00
11505;DHT22;5809;53.262;10.408;2023-07-16T00:23:04;20.10;1.00
11505;DHT22;5809;53.262;10.408;2023-07-16T00:25:31;20.00;1.00
11505;DHT22;5809;53.262;10.408;2023-07-16T00:27:59;20.10;1.00
11505;DHT22;5809;53.262;10.408;2023-07-16T00:30:26;20.00;1.00
11505;DHT22;5809;53.262;10.408;2023-07-16T00:32:53;20.00;1.00
11505;DHT22;5809;53.262;10.408;2023-07-16T00:35:19;20.00;1.00
11505;DHT22;5809;53.262;10.408;2023-07-16T00:37:46;20.00;1.00
11505;DHT22;5809;53.262;10.408;2023-07-16T00:40:13;20.00;1.00
11505;DHT22;5809;53.262;10.408;2023-07-16T00:42:40;19.90;99.90
11505;DHT22;5809;53.262;10.408;2023-07-16T00:45:12;20.10;1.00
11505;DHT22;5809;53.262;10.408;2023-07-16T00:47:40;19.90;1.00
11505;DHT22;5809;53.262;10.408;2023-07-16T00:50:10;20.00;1.00
11505;DHT22;5809;53.262;10.408;2023-07-16T00:52:38;19.90;1.00
11505;DHT22;5809;53.262;10.408;2023-07-16T00:55:06;20.30;1.00
11505;DHT22;5809;53.262;10.408;2023-07-16T00:57:34;19.90;99.90
11505;DHT22;5809;53.262;10.408;2023-07-16T01:00:01;20.00;99.90
11505;DHT22;5809;53.262;10.408;2023-07-16T01:02:29;20.00;1.00
11505;DHT22;5809;53.262;10.408;2023-07-16T01:04:56;19.90;1.00
11505;DHT22;5809;53.262;10.408;2023-07-16T01:07:24;19.90;1.00
11505;DHT22;5809;53.262;10.408;2023-07-16T01:09:53;19.80;1.00
11505;DHT22;5809;53.262;10.408;2023-07-16T01:12:21;19.80;1.00
11505;DHT22;5809;53.262;10.408;2023-07-16T01:14:49;19.90;1.00
11505;DHT22;5809;53.262;10.408;2023-07-16T01:17:17;20.00;99.90
11505;DHT22;5809;53.262;10.408;2023-07-16T01:19:45;19.70;1.00
11505;DHT22;5809;53.262;10.408;2023-07-16T01:22:33;19.70;82.00
11505;DHT22;5809;53.262;10.408;2023-07-16T01:25:11;19.70;1.00
11505;DHT22;5809;53.262;10.408;2023-07-16T01:28:11;19.70;1.00
11505;DHT22;5809;53.262;10.408;2023-07-16T01:30:45;19.70;1.00
11505;DHT22;5809;53.262;10.408;2023-07-16T01:33:13;19.70;1.00
11505;DHT22;5809;53.262;10.408;2023-07-16T01:35:42;19.70;1.00
11505;DHT22;5809;53.262;10.408;2023-07-16T01:38:10;20.10;1.00
11505;DHT22;5809;53.262;10.408;2023-07-16T01:40:37;19.90;99.90
11505;DHT22;5809;53.262;10.408;2023-07-16T01:43:04;19.70;1.00
11505;DHT22;5809;53.262;10.408;2023-07-16T01:45:30;19.70;1.00
11505;DHT22;5809;53.262;10.408;2023-07-16T01:48:07;19.60;1.00
11505;DHT22;5809;53.262;10.408;2023-07-16T01:50:39;19.80;1.00
11505;DHT22;5809;53.262;10.408;2023-07-16T01:53:06;19.60;1.00
11505;DHT22;5809;53.262;10.408;2023-07-16T01:55:33;19.60;1.00
11505;DHT22;5809;53.262;10.408;2023-07-16T01:58:00;19.80;1.00
11505;DHT22;5809;53.262;10.408;2023-07-16T02:00:26;19.50;1.00
11505;DHT22;5809;53.262;10.408;2023-07-16T02:02:53;19.50;1.00
11505;DHT22;5809;53.262;10.408;2023-07-16T02:05:21;19.50;1.00
11505;DHT22;5809;53.262;10.408;2023-07-16T02:07:48;19.50;73.00
11505;DHT22;5809;53.262;10.408;2023-07-16T02:10:15;19.80;1.00
11505;DHT22;5809;53.262;10.408;2023-07-16T02:12:42;19.50;1.00
11505;DHT22;5809;53.262;10.408;2023-07-16T02:15:09;19.50;1.00
11505;DHT22;5809;53.262;10.408;2023-07-16T02:17:36;19.50;1.00
11505;DHT22;5809;53.262;10.408;2023-07-16T02:20:03;19.50;1.00
11505;DHT22;5809;53.262;10.408;2023-07-16T02:22:34;19.50;1.00
11505;DHT22;5809;53.262;10.408;2023-07-16T02:25:01;19.60;99.90
11505;DHT22;5809;53.262;10.408;2023-07-16T02:27:28;19.50;1.00
11505;DHT22;5809;53.262;10.408;2023-07-16T02:29:55;19.00;1.00
11505;DHT22;5809;53.262;10.408;2023-07-16T02:32:22;18.90;1.00
11505;DHT22;5809;53.262;10.408;2023-07-16T02:34:49;18.90;11.30
11505;DHT22;5809;53.262;10.408;2023-07-16T02:37:16;19.10;99.90
11505;DHT22;5809;53.262;10.408;2023-07-16T02:39:45;19.00;99.90
11505;DHT22;5809;53.262;10.408;2023-07-16T02:42:13;18.90;99.90
11505;DHT22;5809;53.262;10.408;2023-07-16T02:44:40;18.70;1.00
11505;DHT22;5809;53.262;10.408;2023-07-16T02:47:10;18.50;99.20
11505;DHT22;5809;53.262;10.408;2023-07-16T02:49:37;18.10;1.00
11505;DHT22;5809;53.262;10.408;2023-07-16T02:52:04;17.80;1.00
11505;DHT22;5809;53.262;10.408;2023-07-16T02:54:31;17.70;15.10
11505;DHT22;5809;53.262;10.408;2023-07-16T02:57:00;17.70;93.70
11505;DHT22;5809;53.262;10.408;2023-07-16T02:59:27;17.60;70.90
11505;DHT22;5809;53.262;10.408;2023-07-16T03:01:53;17.70;20.40
11505;DHT22;5809;53.262;10.408;2023-07-16T03:04:20;17.70;28.40
11505;DHT22;5809;53.262;10.408;2023-07-16T03:06:47;17.70;71.90
11505;DHT22;5809;53.262;10.408;2023-07-16T03:09:14;18.10;99.90
11505;DHT22;5809;53.262;10.408;2023-07-16T03:11:41;17.80;63.80
11505;DHT22;5809;53.262;10.408;2023-07-16T03:14:09;17.80;63.50
11505;DHT22;5809;53.262;10.408;2023-07-16T03:16:36;18.10;93.00
11505;DHT22;5809;53.262;10.408;2023-07-16T03:19:03;18.30;99.90
11505;DHT22;5809;53.262;10.408;2023-07-16T03:21:29;17.90;99.90
11505;DHT22;5809;53.262;10.408;2023-07-16T03:23:56;17.90;52.30
11505;DHT22;5809;53.262;10.408;2023-07-16T03:26:23;17.80;66.70
11505;DHT22;5809;53.262;10.408;2023-07-16T03:28:50;17.90;92.60
11505;DHT22;5809;53.262;10.408;2023-07-16T03:31:18;17.90;96.50
11505;DHT22;5809;53.262;10.408;2023-07-16T03:33:45;17.80;99.90
11505;DHT22;5809;53.262;10.408;2023-07-16T03:38:39;17.80;99.90
11505;DHT22;5809;53.262;10.408;2023-07-16T03:41:06;17.90;99.90
11505;DHT22;5809;53.262;10.408;2023-07-16T03:43:32;17.90;99.90
11505;DHT22;5809;53.262;10.408;2023-07-16T03:45:59;17.80;99.90
11505;DHT22;5809;53.262;10.408;2023-07-16T03:48:27;17.90;99.90
11505;DHT22;5809;53.262;10.408;2023-07-16T03:50:54;17.80;99.90
11505;DHT22;5809;53.262;10.408;2023-07-16T03:53:21;17.80;99.90
11505;DHT22;5809;53.262;10.408;2023-07-16T03:55:48;17.90;99.90
11505;DHT22;5809;53.262;10.408;2023-07-16T03:58:14;17.90;99.90
11505;DHT22;5809;53.262;10.408;2023-07-16T04:00:41;17.90;99.90
11505;DHT22;5809;53.262;10.408;2023-07-16T04:03:09;17.90;99.90
11505;DHT22;5809;53.262;10.408;2023-07-16T04:05:38;17.90;99.90
11505;DHT22;5809;53.262;10.408;2023-07-16T04:08:04;18.00;99.90
11505;DHT22;5809;53.262;10.408;2023-07-16T04:10:31;18.00;99.90
11505;DHT22;5809;53.262;10.408;2023-07-16T04:12:58;18.30;99.90
11505;DHT22;5809;53.262;10.408;2023-07-16T04:15:25;18.00;99.90
11505;DHT22;5809;53.262;10.408;2023-07-16T04:17:51;18.00;99.90
11505;DHT22;5809;53.262;10.408;2023-07-16T04:20:18;18.00;99.90
11505;DHT22;5809;53.262;10.408;2023-07-16T04:22:47;18.00;99.90
11505;DHT22;5809;53.262;10.408;2023-07-16T04:25:14;17.90;99.90
11505;DHT22;5809;53.262;10.408;2023-07-16T04:27:41;18.00;99.90
11505;DHT22;5809;53.262;10.408;2023-07-16T04:30:10;18.00;99.90
11505;DHT22;5809;53.262;10.408;2023-07-16T04:35:04;18.10;99.90
11505;DHT22;5809;53.262;10.408;2023-07-16T04:37:31;18.10;99.90
11505;DHT22;5809;53.262;10.408;2023-07-16T04:39:59;18.10;99.90
11505;DHT22;5809;53.262;10.408;2023-07-16T04:42:26;18.10;99.90
11505;DHT22;5809;53.262;10.408;2023-07-16T04:44:53;18.20;99.90
11505;DHT22;5809;53.262;10.408;2023-07-16T04:47:20;18.20;99.90
11505;DHT22;5809;53.262;10.408;2023-07-16T04:49:46;18.20;99.90
11505;DHT22;5809;53.262;10.408;2023-07-16T04:52:13;18.30;99.90
11505;DHT22;5809;53.262;10.408;2023-07-16T04:54:40;18.60;99.90
11505;DHT22;5809;53.262;10.408;2023-07-16T04:57:08;18.30;99.90
11505;DHT22;5809;53.262;10.408;2023-07-16T05:02:05;18.30;99.90
11505;DHT22;5809;53.262;10.408;2023-07-16T05:04:32;18.30;99.90
11505;DHT22;5809;53.262;10.408;2023-07-16T05:07:00;18.50;89.30
11505;DHT22;5809;53.262;10.408;2023-07-16T05:09:27;18.70;1.00
11505;DHT22;5809;53.262;10.408;2023-07-16T05:11:54;18.90;1.00
11505;DHT22;5809;53.262;10.408;2023-07-16T05:14:22;19.10;1.00
11505;DHT22;5809;53.262;10.408;2023-07-16T05:16:49;19.20;1.00
11505;DHT22;5809;53.262;10.408;2023-07-16T05:19:15;19.40;99.90
11505;DHT22;5809;53.262;10.408;2023-07-16T05:21:42;19.60;83.90
11505;DHT22;5809;53.262;10.408;2023-07-16T05:24:09;19.70;1.00
11505;DHT22;5809;53.262;10.408;2023-07-16T05:26:36;19.80;1.00
11505;DHT22;5809;53.262;10.408;2023-07-16T05:29:03;19.90;1.00
11505;DHT22;5809;53.262;10.408;2023-07-16T05:31:31;19.90;1.00
11505;DHT22;5809;53.262;10.408;2023-07-16T05:33:57;20.20;99.90
11505;DHT22;5809;53.262;10.408;2023-07-16T05:36:24;20.20;99.90
11505;DHT22;5809;53.262;10.408;2023-07-16T05:38:51;20.40;69.00
11505;DHT22;5809;53.262;10.408;2023-07-16T05:41:18;20.70;1.00
11505;DHT22;5809;53.262;10.408;2023-07-16T05:43:45;20.70;1.00
11505;DHT22;5809;53.262;10.408;2023-07-16T05:46:11;20.80;1.00
11505;DHT22;5809;53.262;10.408;2023-07-16T05:48:40;20.90;99.90
11505;DHT22;5809;53.262;10.408;2023-07-16T05:51:06;21.30;1.00
11505;DHT22;5809;53.262;10.408;2023-07-16T05:56:00;21.40;1.00
11505;DHT22;5809;53.262;10.408;2023-07-16T05:58:27;21.60;99.90
11505;DHT22;5809;53.262;10.408;2023-07-16T06:00:54;21.70;99.90
11505;DHT22;5809;53.262;10.408;2023-07-16T06:03:21;21.70;99.90
11505;DHT22;5809;53.262;10.408;2023-07-16T06:05:49;21.80;99.90
11505;DHT22;5809;53.262;10.408;2023-07-16T06:08:16;22.00;78.90
11505;DHT22;5809;53.262;10.408;2023-07-16T06:10:43;22.20;12.60
11505;DHT22;5809;53.262;10.408;2023-07-16T06:13:10;22.50;99.90
11505;DHT22;5809;53.262;10.408;2023-07-16T06:15:36;22.40;93.00
11505;DHT22;5809;53.262;10.408;2023-07-16T06:18:03;22.20;99.90
11505;DHT22;5809;53.262;10.408;2023-07-16T06:22:59;22.10;1.00
11505;DHT22;5809;53.262;10.408;2023-07-16T06:25:25;22.10;17.90
11505;DHT22;5809;53.262;10.408;2023-07-16T06:30:19;21.90;99.90
11505;DHT22;5809;53.262;10.408;2023-07-16T06:32:47;22.10;36.20
11505;DHT22;5809;53.262;10.408;2023-07-16T06:35:13;22.40;1.00
11505;DHT22;5809;53.262;10.408;2023-07-16T06:40:09;22.10;1.00
11505;DHT22;5809;53.262;10.408;2023-07-16T06:42:36;22.40;1.00
11505;DHT22;5809;53.262;10.408;2023-07-16T06:45:04;22.80;99.90
11505;DHT22;5809;53.262;10.408;2023-07-16T06:47:30;23.00;1.00
11505;DHT22;5809;53.262;10.408;2023-07-16T06:49:57;22.60;1.00
11505;DHT22;5809;53.262;10.408;2023-07-16T06:52:24;22.60;1.00
11505;DHT22;5809;53.262;10.408;2023-07-16T06:54:53;22.50;1.00
11505;DHT22;5809;53.262;10.408;2023-07-16T06:57:22;22.30;99.90
11505;DHT22;5809;53.262;10.408;2023-07-16T06:59:49;22.30;99.90
11505;DHT22;5809;53.262;10.408;2023-07-16T07:02:16;19.20;1.00
11505;DHT22;5809;53.262;10.408;2023-07-16T07:07:10;23.90;1.00
11505;DHT22;5809;53.262;10.408;2023-07-16T07:09:37;23.80;1.00
11505;DHT22;5809;53.262;10.408;2023-07-16T07:12:04;23.10;99.90
11505;DHT22;5809;53.262;10.408;2023-07-16T07:14:35;22.50;1.00
11505;DHT22;5809;53.262;10.408;2023-07-16T07:17:01;21.70;99.90
11505;DHT22;5809;53.262;10.408;2023-07-16T07:19:28;21.70;99.90
11505;DHT22;5809;53.262;10.408;2023-07-16T07:21:55;20.10;99.90
11505;DHT22;5809;53.262;10.408;2023-07-16T07:24:22;21.20;1.00
11505;DHT22;5809;53.262;10.408;2023-07-16T07:26:49;21.40;1.00
11505;DHT22;5809;53.262;10.408;2023-07-16T07:29:15;21.80;99.90
11505;DHT22;5809;53.262;10.408;2023-07-16T07:31:44;22.20;1.00
11505;DHT22;5809;53.262;10.408;2023-07-16T07:34:10;22.90;1.00
11505;DHT22;5809;53.262;10.408;2023-07-16T07:36:37;23.40;1.00
11505;DHT22;5809;53.262;10.408;2023-07-16T07:39:04;23.80;99.90
11505;DHT22;5809;53.262;10.408;2023-07-16T07:41:31;24.40;1.00
11505;DHT22;5809;53.262;10.408;2023-07-16T07:43:58;24.40;1.00
11505;DHT22;5809;53.262;10.408;2023-07-16T07:46:25;24.80;1.00
11505;DHT22;5809;53.262;10.408;2023-07-16T07:48:53;25.40;1.00
11505;DHT22;5809;53.262;10.408;2023-07-16T07:51:20;25.00;1.00
11505;DHT22;5809;53.262;10.408;2023-07-16T07:53:47;24.90;1.00
11505;DHT22;5809;53.262;10.408;2023-07-16T07:56:13;24.30;1.00
11505;DHT22;5809;53.262;10.408;2023-07-16T07:58:40;23.60;44.70
11505;DHT22;5809;53.262;10.408;2023-07-16T08:01:07;23.90;1.00
11505;DHT22;5809;53.262;10.408;2023-07-16T08:03:35;23.80;1.00
11505;DHT22;5809;53.262;10.408;2023-07-16T08:06:03;23.20;1.00
11505;DHT22;5809;53.262;10.408;2023-07-16T08:08:30;22.80;1.00
11505;DHT22;5809;53.262;10.408;2023-07-16T08:10:57;23.30;1.00
11505;DHT22;5809;53.262;10.408;2023-07-16T08:13:23;23.40;99.90
11505;DHT22;5809;53.262;10.408;2023-07-16T08:15:50;23.70;99.90
11505;DHT22;5809;53.262;10.408;2023-07-16T08:18:17;24.40;99.90
11505;DHT22;5809;53.262;10.408;2023-07-16T08:20:44;25.20;92.20
11505;DHT22;5809;53.262;10.408;2023-07-16T08:23:12;25.60;1.00
11505;DHT22;5809;53.262;10.408;2023-07-16T08:25:39;25.80;1.00
11505;DHT22;5809;53.262;10.408;2023-07-16T08:28:06;25.30;1.00
11505;DHT22;5809;53.262;10.408;2023-07-16T08:30:33;24.50;94.10
11505;DHT22;5809;53.262;10.408;2023-07-16T08:32:59;23.90;99.90
11505;DHT22;5809;53.262;10.408;2023-07-16T08:35:26;23.30;99.90
11505;DHT22;5809;53.262;10.408;2023-07-16T08:37:53;23.30;99.90
11505;DHT22;5809;53.262;10.408;2023-07-16T08:40:21;23.60;99.90
11505;DHT22;5809;53.262;10.408;2023-07-16T08:42:49;23.20;1.00
11505;DHT22;5809;53.262;10.408;2023-07-16T08:45:16;22.80;1.00
11505;DHT22;5809;53.262;10.408;2023-07-16T08:47:44;23.20;1.00
11505;DHT22;5809;53.262;10.408;2023-07-16T08:50:11;24.00;99.90
11505;DHT22;5809;53.262;10.408;2023-07-16T08:52:39;24.10;99.90
11505;DHT22;5809;53.262;10.408;2023-07-16T08:55:07;24.00;99.90
11505;DHT22;5809;53.262;10.408;2023-07-16T08:57:36;23.80;99.90
11505;DHT22;5809;53.262;10.408;2023-07-16T09:00:03;23.30;99.90
11505;DHT22;5809;53.262;10.408;2023-07-16T09:02:32;22.90;1.00
11505;DHT22;5809;53.262;10.408;2023-07-16T09:05:00;22.50;1.00
11505;DHT22;5809;53.262;10.408;2023-07-16T09:07:26;22.50;1.00
11505;DHT22;5809;53.262;10.408;2023-07-16T09:09:57;22.90;1.00
11505;DHT22;5809;53.262;10.408;2023-07-16T09:12:25;23.80;99.90
11505;DHT22;5809;53.262;10.408;2023-07-16T09:14:54;24.20;99.90
11505;DHT22;5809;53.262;10.408;2023-07-16T09:17:21;24.10;99.90
11505;DHT22;5809;53.262;10.408;2023-07-16T09:19:49;23.50;99.90
11505;DHT22;5809;53.262;10.408;2023-07-16T09:22:17;23.10;99.90
11505;DHT22;5809;53.262;10.408;2023-07-16T09:24:45;22.90;99.90
11505;DHT22;5809;53.262;10.408;2023-07-16T09:27:13;22.50;99.90
11505;DHT22;5809;53.262;10.408;2023-07-16T09:29:40;23.40;99.90
11505;DHT22;5809;53.262;10.408;2023-07-16T09:32:09;24.50;1.00
11505;DHT22;5809;53.262;10.408;2023-07-16T09:34:36;24.70;1.00
11505;DHT22;5809;53.262;10.408;2023-07-16T09:37:04;24.20;1.00
11505;DHT22;5809;53.262;10.408;2023-07-16T09:39:32;23.50;1.00
11505;DHT22;5809;53.262;10.408;2023-07-16T09:41:59;23.20;1.00
11505;DHT22;5809;53.262;10.408;2023-07-16T09:44:26;23.30;39.60
11505;DHT22;5809;53.262;10.408;2023-07-16T09:46:53;23.70;1.00
11505;DHT22;5809;53.262;10.408;2023-07-16T09:49:21;24.60;1.00
11505;DHT22;5809;53.262;10.408;2023-07-16T09:51:48;25.80;1.00
11505;DHT22;5809;53.262;10.408;2023-07-16T09:54:19;26.60;1.00
11505;DHT22;5809;53.262;10.408;2023-07-16T09:56:48;27.10;1.00
11505;DHT22;5809;53.262;10.408;2023-07-16T09:59:17;27.70;1.00
11505;DHT22;5809;53.262;10.408;2023-07-16T10:01:46;27.40;1.00
11505;DHT22;5809;53.262;10.408;2023-07-16T10:04:13;27.30;1.00
11505;DHT22;5809;53.262;10.408;2023-07-16T10:06:53;27.00;1.00
11505;DHT22;5809;53.262;10.408;2023-07-16T10:09:33;26.60;1.00
11505;DHT22;5809;53.262;10.408;2023-07-16T10:12:14;27.10;1.00
11505;DHT22;5809;53.262;10.408;2023-07-16T10:14:42;26.80;1.00
11505;DHT22;5809;53.262;10.408;2023-07-16T10:17:13;26.40;1.00
11505;DHT22;5809;53.262;10.408;2023-07-16T10:19:51;26.40;1.00
11505;DHT22;5809;53.262;10.408;2023-07-16T10:22:19;26.50;1.00
11505;DHT22;5809;53.262;10.408;2023-07-16T10:24:57;26.90;1.00
11505;DHT22;5809;53.262;10.408;2023-07-16T10:27:28;26.50;1.00
11505;DHT22;5809;53.262;10.408;2023-07-16T10:29:55;26.10;1.00
11505;DHT22;5809;53.262;10.408;2023-07-16T10:32:25;26.60;1.00
11505;DHT22;5809;53.262;10.408;2023-07-16T10:34:52;27.10;1.00
11505;DHT22;5809;53.262;10.408;2023-07-16T10:37:20;27.30;1.00
11505;DHT22;5809;53.262;10.408;2023-07-16T10:39:48;26.90;1.00
11505;DHT22;5809;53.262;10.408;2023-07-16T10:42:16;26.30;1.00
11505;DHT22;5809;53.262;10.408;2023-07-16T10:44:43;26.50;1.00
11505;DHT22;5809;53.262;10.408;2023-07-16T10:47:17;26.90;1.00
11505;DHT22;5809;53.262;10.408;2023-07-16T10:49:44;27.30;1.00
11505;DHT22;5809;53.262;10.408;2023-07-16T10:52:11;27.70;1.00
11505;DHT22;5809;53.262;10.408;2023-07-16T10:54:39;28.20;1.00
11505;DHT22;5809;53.262;10.408;2023-07-16T10:57:06;28.30;1.00
11505;DHT22;5809;53.262;10.408;2023-07-16T10:59:33;27.80;1.00
11505;DHT22;5809;53.262;10.408;2023-07-16T11:02:00;27.70;1.00
11505;DHT22;5809;53.262;10.408;2023-07-16T11:04:33;26.80;1.00
11505;DHT22;5809;53.262;10.408;2023-07-16T11:07:04;26.20;1.00
11505;DHT22;5809;53.262;10.408;2023-07-16T11:09:32;26.20;1.00
11505;DHT22;5809;53.262;10.408;2023-07-16T11:12:06;26.00;1.00
11505;DHT22;5809;53.262;10.408;2023-07-16T11:14:33;26.40;1.00
11505;DHT22;5809;53.262;10.408;2023-07-16T11:17:08;27.10;1.00
11505;DHT22;5809;53.262;10.408;2023-07-16T11:19:37;27.30;1.00
11505;DHT22;5809;53.262;10.408;2023-07-16T11:22:06;27.80;1.00
11505;DHT22;5809;53.262;10.408;2023-07-16T11:24:40;27.70;1.00
11505;DHT22;5809;53.262;10.408;2023-07-16T11:27:14;27.40;1.00
11505;DHT22;5809;53.262;10.408;2023-07-16T11:29:45;27.20;1.00
11505;DHT22;5809;53.262;10.408;2023-07-16T11:32:13;28.00;1.00
11505;DHT22;5809;53.262;10.408;2023-07-16T11:34:52;27.20;1.00
11505;DHT22;5809;53.262;10.408;2023-07-16T11:37:19;26.60;1.00
11505;DHT22;5809;53.262;10.408;2023-07-16T11:39:47;26.50;1.00
11505;DHT22;5809;53.262;10.408;2023-07-16T11:42:22;26.90;1.00
11505;DHT22;5809;53.262;10.408;2023-07-16T11:44:50;26.70;1.00
11505;DHT22;5809;53.262;10.408;2023-07-16T11:47:17;26.10;1.00
11505;DHT22;5809;53.262;10.408;2023-07-16T11:49:44;26.10;1.00
11505;DHT22;5809;53.262;10.408;2023-07-16T11:52:11;25.50;1.00
11505;DHT22;5809;53.262;10.408;2023-07-16T11:54:38;25.40;1.00
11505;DHT22;5809;53.262;10.408;2023-07-16T11:57:05;25.40;1.00
11505;DHT22;5809;53.262;10.408;2023-07-16T11:59:33;25.50;1.00
11505;DHT22;5809;53.262;10.408;2023-07-16T12:02:00;25.50;1.00
11505;DHT22;5809;53.262;10.408;2023-07-16T12:04:28;25.00;1.00
11505;DHT22;5809;53.262;10.408;2023-07-16T12:06:55;24.90;1.00
11505;DHT22;5809;53.262;10.408;2023-07-16T12:09:21;25.30;1.00
11505;DHT22;5809;53.262;10.408;2023-07-16T12:11:48;25.10;1.00
11505;DHT22;5809;53.262;10.408;2023-07-16T12:14:15;25.20;1.00
11505;DHT22;5809;53.262;10.408;2023-07-16T12:16:43;26.30;1.00
11505;DHT22;5809;53.262;10.408;2023-07-16T12:19:10;26.80;1.00
11505;DHT22;5809;53.262;10.408;2023-07-16T12:21:37;26.00;1.00
11505;DHT22;5809;53.262;10.408;2023-07-16T12:24:05;25.80;1.00
11505;DHT22;5809;53.262;10.408;2023-07-16T12:26:32;25.70;1.00
11505;DHT22;5809;53.262;10.408;2023-07-16T12:29:00;25.20;1.00
11505;DHT22;5809;53.262;10.408;2023-07-16T12:31:29;26.10;1.00
11505;DHT22;5809;53.262;10.408;2023-07-16T12:33:58;27.30;1.00
11505;DHT22;5809;53.262;10.408;2023-07-16T12:36:25;28.50;1.00
11505;DHT22;5809;53.262;10.408;2023-07-16T12:38:52;28.40;1.00
11505;DHT22;5809;53.262;10.408;2023-07-16T12:41:19;27.60;1.00
11505;DHT22;5809;53.262;10.408;2023-07-16T12:43:46;27.00;1.00
11505;DHT22;5809;53.262;10.408;2023-07-16T12:46:13;26.50;1.00
11505;DHT22;5809;53.262;10.408;2023-07-16T12:48:39;26.20;1.00
11505;DHT22;5809;53.262;10.408;2023-07-16T12:51:08;26.30;1.00
11505;DHT22;5809;53.262;10.408;2023-07-16T12:53:34;26.20;1.00
11505;DHT22;5809;53.262;10.408;2023-07-16T12:56:01;26.10;1.00
11505;DHT22;5809;53.262;10.408;2023-07-16T12:58:28;25.70;1.00
11505;DHT22;5809;53.262;10.408;2023-07-16T13:00:55;25.30;1.00
11505;DHT22;5809;53.262;10.408;2023-07-16T13:03:22;25.10;1.00
11505;DHT22;5809;53.262;10.408;2023-07-16T13:05:48;24.90;1.00
11505;DHT22;5809;53.262;10.408;2023-07-16T13:08:17;24.90;1.00
11505;DHT22;5809;53.262;10.408;2023-07-16T13:10:43;24.90;1.00
11505;DHT22;5809;53.262;10.408;2023-07-16T13:13:10;25.30;1.00
11505;DHT22;5809;53.262;10.408;2023-07-16T13:15:37;26.30;1.00
11505;DHT22;5809;53.262;10.408;2023-07-16T13:18:04;26.70;1.00
11505;DHT22;5809;53.262;10.408;2023-07-16T13:20:31;26.50;1.00
11505;DHT22;5809;53.262;10.408;2023-07-16T13:22:57;26.00;1.00
11505;DHT22;5809;53.262;10.408;2023-07-16T13:25:26;25.80;1.00
11505;DHT22;5809;53.262;10.408;2023-07-16T13:27:55;26.50;1.00
11505;DHT22;5809;53.262;10.408;2023-07-16T13:30:21;26.30;1.00
11505;DHT22;5809;53.262;10.408;2023-07-16T13:32:48;26.10;1.00
11505;DHT22;5809;53.262;10.408;2023-07-16T13:35:15;25.70;1.00
11505;DHT22;5809;53.262;10.408;2023-07-16T13:37:42;25.60;1.00
11505;DHT22;5809;53.262;10.408;2023-07-16T13:40:09;25.60;1.00
11505;DHT22;5809;53.262;10.408;2023-07-16T13:42:37;25.60;1.00
11505;DHT22;5809;53.262;10.408;2023-07-16T13:45:05;29.20;1.00
11505;DHT22;5809;53.262;10.408;2023-07-16T13:47:32;26.10;1.00
11505;DHT22;5809;53.262;10.408;2023-07-16T13:49:59;26.20;1.00
11505;DHT22;5809;53.262;10.408;2023-07-16T13:52:26;26.20;1.00
11505;DHT22;5809;53.262;10.408;2023-07-16T13:54:53;26.50;1.00
11505;DHT22;5809;53.262;10.408;2023-07-16T13:57:20;27.10;1.00
11505;DHT22;5809;53.262;10.408;2023-07-16T13:59:48;27.60;1.00
11505;DHT22;5809;53.262;10.408;2023-07-16T14:02:15;27.30;1.00
11505;DHT22;5809;53.262;10.408;2023-07-16T14:04:41;27.20;1.00
11505;DHT22;5809;53.262;10.408;2023-07-16T14:07:08;28.00;1.00
11505;DHT22;5809;53.262;10.408;2023-07-16T14:09:35;27.40;1.00
11505;DHT22;5809;53.262;10.408;2023-07-16T14:12:02;26.10;1.00
11505;DHT22;5809;53.262;10.408;2023-07-16T14:14:29;25.70;1.00
11505;DHT22;5809;53.262;10.408;2023-07-16T14:16:57;25.50;1.00
11505;DHT22;5809;53.262;10.408;2023-07-16T14:19:24;25.10;1.00
11505;DHT22;5809;53.262;10.408;2023-07-16T14:21:51;24.90;1.00
11505;DHT22;5809;53.262;10.408;2023-07-16T14:24:18;24.90;1.00
11505;DHT22;5809;53.262;10.408;2023-07-16T14:26:44;24.90;1.00
11505;DHT22;5809;53.262;10.408;2023-07-16T14:29:11;24.90;1.00
11505;DHT22;5809;53.262;10.408;2023-07-16T14:31:39;25.20;1.00
11505;DHT22;5809;53.262;10.408;2023-07-16T14:34:07;25.50;1.00
11505;DHT22;5809;53.262;10.408;2023-07-16T14:36:34;25.60;1.00
11505;DHT22;5809;53.262;10.408;2023-07-16T14:39:01;25.60;1.00
11505;DHT22;5809;53.262;10.408;2023-07-16T14:41:28;25.50;1.00
11505;DHT22;5809;53.262;10.408;2023-07-16T14:43:55;25.50;1.00
11505;DHT22;5809;53.262;10.408;2023-07-16T14:46:21;26.10;1.00
11505;DHT22;5809;53.262;10.408;2023-07-16T14:48:48;26.10;1.00
11505;DHT22;5809;53.262;10.408;2023-07-16T14:51:19;25.80;1.00
11505;DHT22;5809;53.262;10.408;2023-07-16T14:53:45;25.60;1.00
11505;DHT22;5809;53.262;10.408;2023-07-16T14:56:12;25.60;1.00
11505;DHT22;5809;53.262;10.408;2023-07-16T14:58:39;25.50;1.00
11505;DHT22;5809;53.262;10.408;2023-07-16T15:01:06;25.60;1.00
11505;DHT22;5809;53.262;10.408;2023-07-16T15:03:34;25.90;1.00
11505;DHT22;5809;53.262;10.408;2023-07-16T15:06:01;26.40;1.00
11505;DHT22;5809;53.262;10.408;2023-07-16T15:08:29;26.30;1.00
11505;DHT22;5809;53.262;10.408;2023-07-16T15:10:57;26.10;1.00
11505;DHT22;5809;53.262;10.408;2023-07-16T15:13:24;25.90;1.00
11505;DHT22;5809;53.262;10.408;2023-07-16T15:15:53;25.80;1.00
11505;DHT22;5809;53.262;10.408;2023-07-16T15:18:22;25.80;1.00
11505;DHT22;5809;53.262;10.408;2023-07-16T15:20:55;25.70;1.00
11505;DHT22;5809;53.262;10.408;2023-07-16T15:23:22;25.70;1.00
11505;DHT22;5809;53.262;10.408;2023-07-16T15:25:50;25.70;1.00
11505;DHT22;5809;53.262;10.408;2023-07-16T15:28:17;25.60;1.00
11505;DHT22;5809;53.262;10.408;2023-07-16T15:30:44;25.40;1.00
11505;DHT22;5809;53.262;10.408;2023-07-16T15:33:11;25.40;1.00
11505;DHT22;5809;53.262;10.408;2023-07-16T15:35:38;25.40;1.00
11505;DHT22;5809;53.262;10.408;2023-07-16T15:38:04;25.40;1.00
11505;DHT22;5809;53.262;10.408;2023-07-16T15:40:33;25.50;1.00
11505;DHT22;5809;53.262;10.408;2023-07-16T15:43:01;25.40;1.00
11505;DHT22;5809;53.262;10.408;2023-07-16T15:45:28;25.30;1.00
11505;DHT22;5809;53.262;10.408;2023-07-16T15:47:55;25.30;1.00
11505;DHT22;5809;53.262;10.408;2023-07-16T15:50:24;25.20;1.00
11505;DHT22;5809;53.262;10.408;2023-07-16T15:52:52;24.90;1.00
11505;DHT22;5809;53.262;10.408;2023-07-16T15:55:19;25.00;1.00
11505;DHT22;5809;53.262;10.408;2023-07-16T15:57:47;25.30;1.00
11505;DHT22;5809;53.262;10.408;2023-07-16T16:00:16;25.50;1.00
11505;DHT22;5809;53.262;10.408;2023-07-16T16:02:46;25.70;1.00
11505;DHT22;5809;53.262;10.408;2023-07-16T16:05:13;25.70;1.00